Joynes, North Carolina
Current Conditions -  °F | °C
As of 8:55 AM on Monday 24 Nov 2014 (Local Time) from KUKF Reporting Station
Broken Clouds Broken Clouds  
Wind Chill: 13°   Ceiling: 1900
Heat Index: 13°   Visibility: 10mi
Dew Point: 12°   Wind: 5mph
Humidity: 94%   Direction: 250°WSW
Pressure: 29.82"   Gusts: NA
Location:  36.345°N, 81.0285°W
Report Text: KUKF 241355Z AUTO 25004KT 10SM BKN019 13/12 A2982 RMK AO2
Loading
Personal Weather Stations






























Interactive Weather Map New forecast layout! Learn more

10-Day Weather Forecast

Advertisements
Track Severe Weather on mobile